Time;durP1;ratioP1;P1;durP2;ratioP2;P2;SDS_P1;SDS_P2;PMS_P1;PMS_P2;Temp;Humidity;BMP_temperature;BMP_pressure;BME280_temperature;BME280_humidity;BME280_pressure;Samples;Min_cycle;Max_cycle;Signal;HPM_P1;HPM_P2
2022/06/06 00:01:38;;;;;;;11.38;8.07;;;16.70;99.90;;;;;;5053898;28;19908;-51
2022/06/06 00:04:04;;;;;;;11.55;8.07;;;16.70;99.90;;;;;;5071951;28;20040;-51
2022/06/06 00:06:30;;;;;;;11.70;7.57;;;16.80;99.90;;;;;;5072062;28;20020;-52
2022/06/06 00:08:57;;;;;;;13.73;7.57;;;16.90;99.90;;;;;;5071671;28;20028;-53
2022/06/06 00:11:24;;;;;;;9.80;6.85;;;16.90;99.90;;;;;;5071161;28;20054;-52
2022/06/06 00:13:50;;;;;;;10.18;7.68;;;16.90;99.90;;;;;;5071682;28;20438;-53
2022/06/06 00:16:16;;;;;;;10.93;7.32;;;17.00;99.90;;;;;;5071606;28;20434;-51
2022/06/06 00:18:42;;;;;;;10.50;7.30;;;16.90;99.90;;;;;;5071937;28;20468;-52
2022/06/06 00:21:10;;;;;;;13.52;7.82;;;16.90;99.90;;;;;;5053284;28;20024;-53
2022/06/06 00:23:37;;;;;;;19.65;8.10;;;16.80;99.90;;;;;;5071343;28;20023;-52
2022/06/06 00:26:07;;;;;;;13.13;7.57;;;16.80;99.90;;;;;;5071245;28;20067;-51
2022/06/06 00:28:37;;;;;;;10.32;7.20;;;16.70;99.90;;;;;;5071634;28;21040;-51
2022/06/06 00:36:34;;;;;;;15.68;8.65;;;16.70;99.90;;;;;;5071431;28;20040;-51
2022/06/06 00:39:00;;;;;;;12.80;7.88;;;16.70;99.90;;;;;;5071127;28;20040;-52
2022/06/06 00:41:26;;;;;;;10.13;7.45;;;16.80;99.90;;;;;;5053242;28;20033;-52
2022/06/06 00:44:07;;;;;;;13.48;7.38;;;16.70;99.90;;;;;;5071023;28;20431;-51
2022/06/06 00:46:41;;;;;;;12.32;8.05;;;16.70;99.90;;;;;;5071301;28;20032;-50
2022/06/06 00:49:13;;;;;;;11.27;8.20;;;16.70;99.90;;;;;;5070980;28;20029;-50
2022/06/06 00:51:39;;;;;;;11.50;7.63;;;16.60;99.90;;;;;;5070879;28;20037;-51
2022/06/06 00:54:06;;;;;;;12.40;7.82;;;16.60;99.90;;;;;;5070804;28;20079;-51
2022/06/06 00:56:39;;;;;;;10.77;7.50;;;16.60;99.90;;;;;;5070744;28;20437;-52
2022/06/06 00:59:19;;;;;;;12.38;8.00;;;16.60;99.90;;;;;;5071149;28;20036;-52
2022/06/06 01:01:48;;;;;;;10.07;8.15;;;16.60;99.90;;;;;;5070750;28;20073;-51
2022/06/06 01:04:16;;;;;;;11.98;8.65;;;16.40;99.90;;;;;;5057620;28;20030;-51
2022/06/06 01:06:42;;;;;;;;;;;16.30;99.90;;;;;;5051009;28;20078;-50
2022/06/06 01:09:09;;;;;;;11.48;8.75;;;16.30;99.90;;;;;;5050266;28;19908;-51
2022/06/06 01:11:36;;;;;;;;;;;16.20;99.90;;;;;;5033136;28;20484;-51
2022/06/06 01:14:03;;;;;;;12.65;8.15;;;16.10;99.90;;;;;;5050572;28;20066;-52
2022/06/06 01:16:35;;;;;;;9.40;7.82;;;16.10;99.90;;;;;;5050406;28;20507;-52
2022/06/06 01:19:18;;;;;;;12.10;9.35;;;16.20;99.90;;;;;;5050592;28;20025;-52
2022/06/06 01:22:11;;;;;;;11.23;9.13;;;16.10;99.90;;;;;;5053549;28;20021;-52
2022/06/06 01:24:57;;;;;;;17.85;9.77;;;16.10;99.90;;;;;;5069331;28;20024;-52
2022/06/06 01:27:39;;;;;;;10.90;8.40;;;15.90;99.90;;;;;;5070166;28;20025;-52
2022/06/06 01:30:10;;;;;;;16.08;9.70;;;15.90;99.90;;;;;;5070104;28;20248;-52
2022/06/06 01:32:48;;;;;;;16.95;9.32;;;15.90;99.90;;;;;;5069755;28;20071;-52
2022/06/06 01:35:25;;;;;;;13.00;9.30;;;15.90;99.90;;;;;;5070043;28;20066;-52
2022/06/06 01:37:50;;;;;;;18.17;9.10;;;15.90;99.90;;;;;;5069770;28;20032;-52
2022/06/06 01:40:18;;;;;;;13.60;9.13;;;15.90;99.90;;;;;;5069865;28;20020;-52
2022/06/06 01:42:54;;;;;;;11.82;9.00;;;16.00;99.90;;;;;;5069820;28;20028;-52
2022/06/06 01:45:44;;;;;;;13.55;10.48;;;16.00;99.90;;;;;;5069646;28;20538;-52
2022/06/06 01:48:20;;;;;;;12.00;8.63;;;16.00;99.90;;;;;;5069918;28;20055;-52
2022/06/06 01:50:47;;;;;;;13.52;9.23;;;16.10;99.90;;;;;;5069349;28;20117;-51
2022/06/06 01:53:24;;;;;;;12.13;9.57;;;16.10;99.90;;;;;;5069743;28;20064;-52
2022/06/06 01:55:51;;;;;;;13.32;9.40;;;16.10;99.90;;;;;;5070074;28;20104;-52
2022/06/06 01:58:25;;;;;;;12.93;9.38;;;16.00;99.90;;;;;;5069796;28;20043;-52
2022/06/06 02:00:54;;;;;;;13.65;9.48;;;16.10;99.90;;;;;;5069728;28;20020;-52
2022/06/06 02:03:21;;;;;;;13.20;8.93;;;16.20;99.90;;;;;;5069954;28;20025;-52
2022/06/06 02:05:47;;;;;;;16.47;9.57;;;16.20;99.90;;;;;;5069849;28;20886;-52
2022/06/06 02:08:14;;;;;;;14.25;9.15;;;16.20;99.90;;;;;;5069830;28;20299;-52
2022/06/06 02:10:40;;;;;;;13.23;10.02;;;16.30;99.90;;;;;;5069766;28;20114;-51
2022/06/06 02:13:06;;;;;;;13.13;10.10;;;16.20;99.90;;;;;;5069681;28;20136;-52
2022/06/06 02:15:32;;;;;;;15.60;10.00;;;16.20;99.90;;;;;;5069853;28;20025;-52
2022/06/06 02:17:58;;;;;;;13.18;10.25;;;16.20;99.90;;;;;;5069536;28;20559;-52
2022/06/06 02:20:26;;;;;;;16.02;9.70;;;16.20;99.90;;;;;;5069538;28;20547;-52
2022/06/06 02:22:53;;;;;;;19.42;12.07;;;16.20;99.90;;;;;;5039233;28;20037;-52
2022/06/06 02:25:19;;;;;;;14.73;10.07;;;16.20;99.90;;;;;;5049428;28;20024;-52
2022/06/06 02:27:46;;;;;;;18.42;10.98;;;16.20;99.90;;;;;;5049964;28;20025;-51
2022/06/06 02:30:18;;;;;;;14.40;11.20;;;16.20;99.90;;;;;;5049202;28;20063;-53
2022/06/06 02:32:44;;;;;;;16.02;11.25;;;16.20;99.90;;;;;;5049443;28;20049;-51
2022/06/06 02:35:13;;;;;;;18.80;12.05;;;16.20;99.90;;;;;;5050049;28;20025;-52
2022/06/06 02:37:40;;;;;;;19.45;12.73;;;16.20;99.90;;;;;;5053301;28;20037;-53
2022/06/06 02:40:09;;;;;;;17.08;11.75;;;16.20;99.90;;;;;;5053187;28;20025;-52
2022/06/06 02:42:36;;;;;;;14.80;10.55;;;16.20;99.90;;;;;;5055798;28;20037;-52
2022/06/06 02:45:02;;;;;;;14.63;11.07;;;16.30;99.90;;;;;;5053398;28;20060;-52
2022/06/06 02:47:29;;;;;;;16.33;11.37;;;16.20;99.90;;;;;;5052997;28;20033;-52
2022/06/06 02:49:54;;;;;;;16.63;12.15;;;16.10;99.90;;;;;;5053262;28;20082;-51
2022/06/06 02:52:20;;;;;;;14.43;11.02;;;16.10;99.90;;;;;;5052718;28;20049;-52
2022/06/06 02:54:46;;;;;;;14.95;11.75;;;16.20;99.90;;;;;;5052924;28;20025;-51
2022/06/06 02:57:12;;;;;;;14.75;11.23;;;16.20;99.90;;;;;;5052913;28;20025;-52
2022/06/06 02:59:38;;;;;;;14.20;11.30;;;16.20;99.90;;;;;;5052865;28;20023;-52
2022/06/06 03:02:04;;;;;;;16.65;12.68;;;16.20;99.90;;;;;;5052913;28;20108;-51
2022/06/06 03:04:30;;;;;;;17.58;13.32;;;16.20;99.90;;;;;;5052748;28;20087;-50
2022/06/06 03:07:27;;;;;;;20.38;14.82;;;16.20;99.90;;;;;;5052801;28;20033;-51
2022/06/06 03:10:01;;;;;;;21.88;15.35;;;16.10;99.90;;;;;;5052628;28;20511;-52
2022/06/06 03:12:42;;;;;;;19.13;15.32;;;16.20;99.90;;;;;;5052569;28;20039;-50
2022/06/06 03:15:26;;;;;;;19.08;14.02;;;16.20;99.90;;;;;;5052727;28;20025;-51
2022/06/06 03:21:16;;;;;;;19.58;13.32;;;16.20;99.90;;;;;;5052485;28;20036;-51
2022/06/06 03:23:57;;;;;;;17.73;13.90;;;16.20;99.90;;;;;;5068559;28;20082;-52
2022/06/06 03:26:41;;;;;;;18.65;14.35;;;16.10;99.90;;;;;;5072809;28;20021;-52
2022/06/06 03:29:34;;;;;;;20.60;15.15;;;16.20;99.90;;;;;;5072581;28;20075;-52
2022/06/06 03:32:18;;;;;;;23.65;14.88;;;16.20;99.90;;;;;;5072513;28;20449;-52
2022/06/06 03:35:05;;;;;;;25.65;15.68;;;16.20;99.90;;;;;;5072151;28;20013;-52
2022/06/06 03:37:53;;;;;;;23.10;16.07;;;16.10;99.90;;;;;;5072374;28;20078;-52
2022/06/06 03:40:28;;;;;;;21.50;15.27;;;16.20;99.90;;;;;;5072155;28;20021;-52
2022/06/06 03:42:59;;;;;;;28.17;16.60;;;16.10;99.90;;;;;;5072221;28;20128;-52
2022/06/06 03:45:46;;;;;;;18.75;14.73;;;16.10;99.90;;;;;;5072327;28;20028;-52
2022/06/06 03:48:32;;;;;;;21.10;15.63;;;16.00;99.90;;;;;;5071351;28;20055;-52
2022/06/06 03:51:01;;;;;;;20.75;15.32;;;16.10;99.90;;;;;;5071796;28;20498;-51
2022/06/06 03:53:51;;;;;;;18.48;15.23;;;16.10;99.90;;;;;;5071567;28;20101;-51
2022/06/06 03:56:19;;;;;;;20.83;14.23;;;16.00;99.90;;;;;;5071785;28;20036;-52
2022/06/06 03:58:46;;;;;;;20.52;14.48;;;16.00;99.90;;;;;;5071790;28;20029;-51
2022/06/06 04:01:14;;;;;;;20.45;14.02;;;16.00;99.90;;;;;;5071741;28;20665;-52
2022/06/06 04:03:42;;;;;;;20.10;14.57;;;16.00;99.90;;;;;;5071593;28;20089;-51
2022/06/06 04:06:09;;;;;;;19.15;13.88;;;16.00;99.90;;;;;;5071350;28;20028;-52
2022/06/06 04:08:35;;;;;;;18.63;14.13;;;16.10;99.90;;;;;;5071628;28;20032;-52
2022/06/06 04:11:22;;;;;;;18.08;12.65;;;16.20;99.90;;;;;;5071145;28;20040;-52
2022/06/06 04:13:51;;;;;;;16.90;12.20;;;16.20;99.90;;;;;;5071529;28;20025;-52
2022/06/06 04:16:44;;;;;;;15.63;11.80;;;16.20;99.90;;;;;;5071626;28;20028;-51
2022/06/06 04:19:28;;;;;;;15.18;11.70;;;16.20;99.90;;;;;;5070951;28;20036;-52
2022/06/06 04:22:14;;;;;;;15.13;12.45;;;16.20;99.90;;;;;;5070447;28;20035;-52
2022/06/06 04:24:58;;;;;;;17.33;11.95;;;16.30;99.90;;;;;;5043763;28;20045;-51
2022/06/06 04:27:43;;;;;;;16.27;12.38;;;16.30;99.90;;;;;;5051795;28;20021;-51
2022/06/06 04:30:40;;;;;;;14.60;12.25;;;16.30;99.90;;;;;;5050971;28;20514;-52
2022/06/06 04:33:27;;;;;;;17.88;12.15;;;16.30;99.90;;;;;;5050383;28;20052;-52
2022/06/06 04:36:04;;;;;;;20.35;13.15;;;16.30;99.90;;;;;;5051280;28;20110;-51
2022/06/06 04:38:52;;;;;;;18.40;12.38;;;16.40;99.90;;;;;;5051032;28;20078;-52
2022/06/06 04:41:42;;;;;;;16.15;12.52;;;16.30;99.90;;;;;;5051372;28;20051;-51
2022/06/06 04:44:19;;;;;;;18.02;12.45;;;16.20;99.90;;;;;;5050959;28;20087;-52
2022/06/06 04:46:52;;;;;;;17.05;12.55;;;16.40;99.90;;;;;;5050819;28;20028;-51
2022/06/06 04:49:19;;;;;;;16.95;12.40;;;16.20;99.90;;;;;;5050964;28;20063;-51
2022/06/06 04:51:46;;;;;;;18.45;13.18;;;16.30;99.90;;;;;;5050652;28;20040;-50
2022/06/06 04:54:21;;;;;;;16.83;12.55;;;16.30;99.90;;;;;;5050413;28;20056;-52
2022/06/06 04:56:49;;;;;;;17.73;12.93;;;16.20;99.90;;;;;;5050678;28;20036;-53
2022/06/06 04:59:16;;;;;;;17.10;12.02;;;16.30;99.90;;;;;;5050638;28;20063;-52
2022/06/06 05:01:42;;;;;;;16.45;13.10;;;16.20;99.90;;;;;;5050944;28;20025;-52
2022/06/06 05:04:08;;;;;;;14.40;11.38;;;16.40;99.90;;;;;;5050487;28;20036;-52
2022/06/06 05:07:06;;;;;;;15.20;11.98;;;16.40;99.90;;;;;;5050406;28;20025;-52
2022/06/06 05:09:55;;;;;;;16.07;12.77;;;16.50;99.90;;;;;;5050846;28;20021;-51
2022/06/06 05:12:26;;;;;;;;;;;16.50;99.90;;;;;;5050732;28;20041;-51
2022/06/06 05:14:57;;;;;;;15.20;11.30;;;16.60;99.90;;;;;;5050447;28;20455;-51
2022/06/06 05:17:54;;;;;;;15.75;12.00;;;16.60;99.90;;;;;;5050528;28;20059;-53
2022/06/06 05:20:34;;;;;;;15.45;12.10;;;16.70;99.90;;;;;;5050448;28;20082;-53
2022/06/06 05:23:21;;;;;;;21.70;13.50;;;16.70;99.90;;;;;;5041330;28;20025;-52
2022/06/06 05:26:11;;;;;;;16.05;11.35;;;16.80;99.90;;;;;;5070169;28;20020;-53
2022/06/06 05:28:51;;;;;;;15.20;11.65;;;16.80;99.90;;;;;;5031797;28;20129;-52
2022/06/06 05:31:42;;;;;;;18.23;11.63;;;16.90;99.90;;;;;;5049958;28;20045;-51
2022/06/06 05:34:24;;;;;;;14.48;11.38;;;17.00;99.90;;;;;;5050217;28;20082;-51
2022/06/06 05:37:28;;;;;;;16.70;11.85;;;17.00;99.90;;;;;;5050215;28;20040;-50
2022/06/06 05:39:59;;;;;;;16.90;11.95;;;17.10;99.90;;;;;;4988279;28;20038;-50
2022/06/06 05:42:46;;;;;;;18.02;12.27;;;17.20;99.90;;;;;;4988097;28;20026;-51
2022/06/06 05:45:14;;;;;;;15.15;11.23;;;17.30;99.90;;;;;;5027914;28;20029;-50
2022/06/06 05:48:15;;;;;;;17.58;11.85;;;17.40;99.90;;;;;;5050038;28;20025;-51
2022/06/06 05:50:57;;;;;;;18.02;12.27;;;17.40;99.90;;;;;;5036632;28;20045;-51
2022/06/06 05:53:32;;;;;;;17.60;11.63;;;17.50;99.90;;;;;;5049402;28;20045;-50
2022/06/06 05:56:13;;;;;;;16.58;11.68;;;17.70;99.90;;;;;;5049976;28;20028;-52
2022/06/06 05:58:50;;;;;;;12.82;10.05;;;17.70;99.90;;;;;;5049556;28;20105;-49
2022/06/06 06:01:31;;;;;;;13.52;10.73;;;17.80;99.90;;;;;;5049995;28;20017;-51
2022/06/06 06:04:16;;;;;;;17.45;11.63;;;17.90;99.90;;;;;;5049831;28;20029;-50
2022/06/06 06:06:50;;;;;;;22.08;11.55;;;18.00;99.90;;;;;;5049845;28;20029;-50
2022/06/06 06:09:55;;;;;;;15.27;11.43;;;18.10;99.90;;;;;;5049519;28;20523;-50
2022/06/06 06:12:58;;;;;;;18.85;11.20;;;18.20;99.90;;;;;;5051947;28;20041;-50
2022/06/06 06:15:39;;;;;;;20.92;10.70;;;18.40;99.90;;;;;;5053832;28;20381;-50
2022/06/06 06:18:22;;;;;;;14.88;10.63;;;18.50;99.90;;;;;;5053528;28;20481;-54
2022/06/06 06:20:56;;;;;;;11.15;8.80;;;18.60;99.90;;;;;;5064136;28;20025;-52
2022/06/06 06:23:26;;;;;;;12.23;9.32;;;18.80;99.90;;;;;;5066140;28;20021;-51
2022/06/06 06:25:54;;;;;;;11.90;8.63;;;18.90;99.90;;;;;;5064099;28;20028;-50
2022/06/06 06:28:20;;;;;;;11.18;8.88;;;18.90;99.90;;;;;;5063221;28;20020;-52
2022/06/06 06:31:09;;;;;;;11.82;8.77;;;19.00;99.90;;;;;;5053418;28;20037;-50
2022/06/06 06:33:56;;;;;;;14.10;10.23;;;19.10;99.90;;;;;;5064127;28;20028;-50
2022/06/06 06:36:43;;;;;;;15.60;9.23;;;19.20;99.90;;;;;;5061540;28;20048;-52
2022/06/06 06:39:29;;;;;;;11.68;10.23;;;19.20;99.90;;;;;;5036185;28;20075;-50
2022/06/06 06:42:30;;;;;;;11.48;8.70;;;19.40;99.90;;;;;;5053384;28;20028;-51
2022/06/06 06:44:59;;;;;;;12.63;9.15;;;19.50;99.90;;;;;;5058622;28;20029;-51
2022/06/06 06:47:31;;;;;;;13.90;8.05;;;19.70;99.90;;;;;;5063040;28;20111;-50
2022/06/06 06:50:00;;;;;;;13.07;9.70;;;19.80;99.90;;;;;;5055516;28;20029;-51
2022/06/06 06:52:31;;;;;;;12.48;8.48;;;19.80;99.90;;;;;;5065489;28;20048;-50
2022/06/06 06:55:22;;;;;;;12.23;8.55;;;19.80;99.90;;;;;;5060943;28;20020;-51
2022/06/06 06:58:09;;;;;;;14.55;9.10;;;19.90;99.90;;;;;;5062537;28;20021;-49
2022/06/06 07:00:59;;;;;;;15.20;9.85;;;19.90;99.90;;;;;;5060798;28;20028;-53
2022/06/06 07:09:58;;;;;;;17.20;10.32;;;20.20;99.90;;;;;;5062375;28;20116;-53
2022/06/06 07:12:47;;;;;;;15.63;10.20;;;20.20;99.90;;;;;;5060202;28;20033;-52
2022/06/06 07:15:16;;;;;;;15.45;10.82;;;20.40;99.90;;;;;;5056991;28;20563;-48
2022/06/06 07:17:50;;;;;;;16.40;10.65;;;20.40;99.90;;;;;;5052504;28;20040;-50
2022/06/06 07:20:18;;;;;;;15.60;9.65;;;20.40;99.90;;;;;;5052319;28;20024;-50
2022/06/06 07:23:14;;;;;;;14.73;9.95;;;20.40;99.90;;;;;;5054996;28;20351;-50
2022/06/06 07:25:44;;;;;;;11.80;9.05;;;20.40;99.90;;;;;;5044398;28;20040;-49
2022/06/06 07:28:20;;;;;;;11.75;9.40;;;20.50;99.90;;;;;;5060495;28;20447;-51
2022/06/06 07:30:48;;;;;;;16.73;10.02;;;20.60;99.90;;;;;;5067873;28;20032;-52
2022/06/06 07:33:39;;;;;;;16.75;10.38;;;20.70;99.90;;;;;;5072097;28;20067;-51
2022/06/06 07:36:13;;;;;;;16.38;9.95;;;20.80;99.90;;;;;;5071008;28;20020;-51
2022/06/06 07:38:51;;;;;;;14.38;10.50;;;20.90;99.90;;;;;;5070562;28;20028;-51
2022/06/06 07:41:19;;;;;;;16.30;10.95;;;20.90;99.90;;;;;;5072062;28;20025;-51
2022/06/06 07:44:01;;;;;;;14.63;9.45;;;21.00;99.90;;;;;;5071755;28;20029;-52
2022/06/06 07:46:42;;;;;;;16.55;11.52;;;21.20;99.90;;;;;;5072067;28;20020;-51
2022/06/06 07:49:37;;;;;;;16.30;11.45;;;21.20;99.90;;;;;;5071208;28;20507;-52
2022/06/06 07:52:30;;;;;;;14.10;10.00;;;21.20;99.90;;;;;;5070526;28;20051;-52
2022/06/06 07:55:03;;;;;;;14.40;10.80;;;21.20;99.90;;;;;;5047149;28;20036;-51
2022/06/06 07:57:48;;;;;;;10.68;9.25;;;21.40;99.90;;;;;;5060022;28;20627;-52
2022/06/06 08:00:28;;;;;;;13.88;11.15;;;21.40;99.90;;;;;;5063558;28;20103;-50
2022/06/06 08:03:12;;;;;;;19.55;9.10;;;21.40;99.90;;;;;;5070803;28;20051;-53
2022/06/06 08:06:02;;;;;;;14.18;10.48;;;21.40;99.90;;;;;;5071711;28;20025;-51
2022/06/06 08:08:40;;;;;;;14.52;8.30;;;21.40;99.90;;;;;;5071279;28;20354;-54
2022/06/06 08:11:32;;;;;;;13.73;10.43;;;21.40;99.90;;;;;;5070118;28;20321;-51
2022/06/06 08:14:30;;;;;;;14.70;9.35;;;21.70;99.90;;;;;;5068079;28;20055;-52
2022/06/06 08:17:19;;;;;;;12.83;10.03;;;21.70;99.90;;;;;;5062218;28;20028;-52
2022/06/06 08:19:57;;;;;;;13.02;8.85;;;21.90;99.90;;;;;;5068485;28;20380;-52
2022/06/06 08:22:24;;;;;;;10.90;8.73;;;21.90;99.90;;;;;;5069564;28;20738;-52
2022/06/06 08:24:56;;;;;;;12.75;10.23;;;21.90;99.90;;;;;;5059978;28;20039;-51
2022/06/06 08:27:26;;;;;;;14.57;10.57;;;21.90;99.90;;;;;;5053984;28;20039;-52
2022/06/06 08:29:51;;;;;;;100.15;79.55;;;21.90;99.90;;;;;;5056832;28;20019;-52
2022/06/06 08:32:18;;;;;;;12.38;8.70;;;22.10;99.90;;;;;;5056055;28;20037;-52
2022/06/06 08:34:44;;;;;;;10.50;8.90;;;22.10;99.90;;;;;;5056200;28;20025;-52
2022/06/06 08:37:21;;;;;;;15.50;9.15;;;22.10;99.90;;;;;;5058073;28;20040;-51
2022/06/06 08:40:14;;;;;;;13.23;10.73;;;22.10;99.90;;;;;;5067325;28;20551;-51
2022/06/06 08:43:03;;;;;;;12.52;9.15;;;22.30;99.90;;;;;;5060316;28;20040;-52
2022/06/06 08:45:47;;;;;;;11.70;9.32;;;22.10;99.90;;;;;;5054502;28;20021;-52
2022/06/06 08:48:33;;;;;;;14.48;10.48;;;22.30;99.90;;;;;;5058619;28;20050;-52
2022/06/06 08:51:19;;;;;;;58.47;16.48;;;22.40;99.90;;;;;;5022841;28;20051;-52
2022/06/06 08:53:54;;;;;;;14.50;9.48;;;22.50;99.90;;;;;;5060761;28;20052;-49
2022/06/06 08:56:52;;;;;;;17.65;11.10;;;22.60;99.90;;;;;;5062398;28;20533;-52
2022/06/06 08:59:29;;;;;;;12.23;9.90;;;22.70;99.90;;;;;;5070769;28;20361;-50
2022/06/06 09:01:58;;;;;;;12.80;9.82;;;22.70;99.90;;;;;;5070457;28;20032;-51
2022/06/06 09:05:04;;;;;;;15.40;9.98;;;22.70;99.90;;;;;;5070594;28;20581;-51
2022/06/06 09:07:34;;;;;;;12.95;8.93;;;22.80;99.90;;;;;;5064592;28;20033;-52
2022/06/06 09:10:44;;;;;;;13.15;8.70;;;22.80;99.90;;;;;;5059746;28;20036;-51
2022/06/06 09:13:29;;;;;;;14.73;8.65;;;23.00;99.90;;;;;;5056727;28;20589;-51
2022/06/06 09:16:27;;;;;;;13.10;8.52;;;23.20;99.90;;;;;;5042690;28;20483;-51
2022/06/06 09:19:07;;;;;;;12.63;10.13;;;23.40;99.90;;;;;;5059901;28;20033;-51
2022/06/06 09:21:36;;;;;;;9.98;8.85;;;23.50;99.90;;;;;;5059907;28;20251;-51
2022/06/06 09:24:42;;;;;;;11.77;9.82;;;23.50;99.90;;;;;;5058478;28;20060;-52
2022/06/06 09:27:50;;;;;;;10.88;8.20;;;23.50;99.90;;;;;;5018868;28;20503;-52
2022/06/06 09:31:02;;;;;;;13.23;9.80;;;23.80;99.90;;;;;;5060014;28;20190;-51
2022/06/06 09:33:58;;;;;;;13.95;9.45;;;24.00;99.90;;;;;;5037568;28;20503;-51
2022/06/06 09:36:51;;;;;;;13.27;9.00;;;24.00;99.90;;;;;;5051596;28;20040;-51
2022/06/06 09:39:45;;;;;;;9.35;7.65;;;23.70;99.90;;;;;;5059755;28;20090;-51
2022/06/06 09:42:15;;;;;;;14.93;10.32;;;23.70;99.90;;;;;;5056393;28;20021;-52
2022/06/06 09:45:14;;;;;;;10.70;8.25;;;23.70;99.90;;;;;;5049494;28;20025;-51
2022/06/06 09:48:04;;;;;;;11.77;7.57;;;23.40;99.90;;;;;;5050036;28;20025;-52
2022/06/06 09:50:48;;;;;;;9.07;7.70;;;23.60;99.90;;;;;;5049865;28;20040;-52
2022/06/06 09:53:27;;;;;;;9.45;6.60;;;23.70;99.90;;;;;;5049905;28;20044;-52
2022/06/06 09:59:16;;;;;;;16.52;9.07;;;23.70;99.90;;;;;;5049856;28;20082;-52
2022/06/06 10:01:50;;;;;;;11.50;7.82;;;23.80;99.90;;;;;;5049913;28;20063;-51
2022/06/06 10:04:37;;;;;;;9.98;8.77;;;23.70;99.90;;;;;;5049654;28;20431;-51
2022/06/06 10:07:05;;;;;;;8.93;7.50;;;23.80;99.90;;;;;;5049790;28;20032;-51
2022/06/06 10:10:05;;;;;;;13.57;9.35;;;23.80;99.90;;;;;;5049634;28;20358;-51
2022/06/06 10:12:34;;;;;;;10.40;7.25;;;23.90;99.90;;;;;;5052297;28;20029;-51
2022/06/06 10:15:21;;;;;;;9.82;8.13;;;23.70;99.90;;;;;;5049777;28;20424;-51
2022/06/06 10:18:05;;;;;;;10.75;7.55;;;23.90;99.90;;;;;;5049517;28;20025;-50
2022/06/06 10:21:09;;;;;;;9.13;6.88;;;24.00;99.90;;;;;;5049757;28;20022;-51
2022/06/06 10:23:52;;;;;;;12.13;8.05;;;24.40;99.90;;;;;;5062489;28;20032;-52
2022/06/06 10:26:36;;;;;;;8.68;7.70;;;24.60;99.00;;;;;;5056974;28;20020;-51
2022/06/06 10:30:10;;;;;;;9.13;7.72;;;24.40;99.40;;;;;;5059568;28;20029;-51
2022/06/06 10:32:17;;;;;;;9.88;7.15;;;24.80;98.30;;;;;;5058903;28;20095;-51
2022/06/06 10:35:00;;;;;;;9.63;7.30;;;24.80;97.90;;;;;;5058141;28;20464;-51
2022/06/06 10:37:55;;;;;;;10.73;6.90;;;25.00;96.70;;;;;;5057466;28;20033;-51
2022/06/06 10:40:46;;;;;;;8.40;7.53;;;25.30;95.80;;;;;;5042600;28;20487;-50
2022/06/06 10:43:15;;;;;;;9.95;6.63;;;25.30;92.90;;;;;;5024605;28;20059;-53
2022/06/06 10:45:48;;;;;;;10.38;7.22;;;25.10;92.40;;;;;;5058451;28;20411;-52
2022/06/06 10:48:33;;;;;;;12.82;7.93;;;25.20;93.10;;;;;;5055842;28;20032;-53
2022/06/06 10:53:55;;;;;;;7.20;6.38;;;25.80;92.80;;;;;;5057807;28;20052;-52
2022/06/06 10:56:30;;;;;;;8.43;6.75;;;26.10;90.90;;;;;;5059639;28;20028;-52
2022/06/06 10:59:01;;;;;;;7.80;6.95;;;25.90;91.40;;;;;;5073136;28;20056;-53
2022/06/06 11:01:42;;;;;;;10.15;7.35;;;25.40;90.70;;;;;;5072928;28;20020;-52
2022/06/06 11:04:22;;;;;;;12.10;6.75;;;25.20;90.30;;;;;;5073304;28;20078;-52
2022/06/06 11:07:10;;;;;;;9.85;8.10;;;24.90;91.30;;;;;;5072872;28;20514;-52
2022/06/06 11:09:38;;;;;;;12.73;6.87;;;24.80;94.50;;;;;;5072950;28;20074;-51
2022/06/06 11:12:27;;;;;;;9.52;7.10;;;24.80;92.00;;;;;;5071846;28;20486;-52
2022/06/06 11:14:55;;;;;;;6.95;5.07;;;24.80;91.20;;;;;;5072294;28;20067;-53
2022/06/06 11:17:39;;;;;;;9.55;5.50;;;24.50;91.40;;;;;;5088331;28;20443;-52
2022/06/06 11:20:29;;;;;;;9.05;5.38;;;24.40;91.60;;;;;;5072703;28;20025;-50
2022/06/06 11:23:17;;;;;;;8.27;5.32;;;24.30;91.70;;;;;;5072852;28;20036;-52
2022/06/06 11:26:21;;;;;;;6.53;4.38;;;24.30;91.80;;;;;;5072263;28;20020;-51
2022/06/06 11:29:23;;;;;;;6.03;5.03;;;24.30;92.20;;;;;;5072319;28;20025;-52
2022/06/06 11:32:17;;;;;;;9.98;4.70;;;24.50;93.10;;;;;;5020715;28;20070;-52
2022/06/06 11:35:01;;;;;;;7.63;4.68;;;24.70;91.90;;;;;;5072251;28;20021;-52
2022/06/06 11:37:55;;;;;;;7.60;4.63;;;24.70;90.70;;;;;;5072509;28;20459;-53
2022/06/06 11:40:46;;;;;;;9.00;5.88;;;24.70;91.20;;;;;;5045681;28;20043;-52
2022/06/06 11:43:51;;;;;;;9.13;5.28;;;24.70;90.60;;;;;;5072481;28;20024;-53
2022/06/06 11:46:53;;;;;;;8.27;5.05;;;24.50;89.90;;;;;;5072445;28;20089;-51
2022/06/06 11:49:37;;;;;;;10.88;6.32;;;24.70;88.50;;;;;;5052052;28;20475;-51
2022/06/06 11:52:40;;;;;;;8.98;4.57;;;24.70;90.10;;;;;;5051693;28;20116;-51
2022/06/06 11:55:36;;;;;;;7.63;4.15;;;24.60;86.60;;;;;;5001197;28;20041;-52
2022/06/06 11:58:08;;;;;;;7.95;5.05;;;24.60;87.90;;;;;;5052028;28;20033;-53
2022/06/06 12:01:30;;;;;;;6.45;5.15;;;24.70;89.30;;;;;;5051841;28;20035;-52
2022/06/06 12:04:15;;;;;;;10.10;4.82;;;24.70;93.10;;;;;;4989967;28;20031;-53
2022/06/06 12:06:55;;;;;;;8.50;4.85;;;24.70;95.50;;;;;;4989926;28;20026;-52
2022/06/06 12:09:24;;;;;;;10.18;5.15;;;24.60;98.00;;;;;;5039584;28;20044;-51
2022/06/06 12:12:31;;;;;;;8.25;4.75;;;24.30;98.10;;;;;;5051254;28;20056;-51
2022/06/06 12:15:42;;;;;;;7.10;5.28;;;24.20;99.90;;;;;;5051421;28;20029;-52
2022/06/06 12:18:49;;;;;;;8.32;4.70;;;24.30;99.90;;;;;;5051633;28;20079;-51
2022/06/06 12:21:14;;;;;;;7.80;5.13;;;24.30;99.90;;;;;;5051420;28;20863;-53
2022/06/06 12:23:59;;;;;;;10.35;5.03;;;24.30;99.90;;;;;;5051532;28;20116;-52
2022/06/06 12:26:24;;;;;;;9.38;5.30;;;24.10;99.90;;;;;;5051768;28;20025;-51
2022/06/06 12:29:01;;;;;;;9.18;5.28;;;24.10;99.90;;;;;;5051448;28;20398;-52
2022/06/06 12:31:57;;;;;;;6.55;5.30;;;24.10;99.90;;;;;;5051559;28;20037;-52
2022/06/06 12:34:31;;;;;;;5.75;5.10;;;24.00;99.90;;;;;;5044036;28;20025;-52
2022/06/06 12:37:22;;;;;;;11.98;4.88;;;24.20;99.90;;;;;;5071096;28;20034;-51
2022/06/06 12:40:18;;;;;;;7.13;5.50;;;24.10;99.90;;;;;;5049409;28;20049;-52
2022/06/06 12:43:17;;;;;;;5.45;4.47;;;24.10;99.90;;;;;;5048997;28;20583;-53
2022/06/06 12:45:57;;;;;;;7.43;4.97;;;23.90;99.90;;;;;;5051097;28;20426;-53
2022/06/06 12:48:31;;;;;;;8.02;4.78;;;23.60;99.90;;;;;;5064584;28;20380;-52
2022/06/06 12:50:59;;;;;;;10.48;5.13;;;23.60;99.90;;;;;;5070911;28;20115;-52
2022/06/06 12:53:36;;;;;;;8.82;4.82;;;23.70;99.90;;;;;;5069716;28;20044;-52
2022/06/06 12:56:37;;;;;;;11.60;4.68;;;23.70;99.90;;;;;;5070635;28;20013;-53
2022/06/06 12:59:18;;;;;;;6.35;4.60;;;23.60;99.90;;;;;;5070573;28;20468;-50
2022/06/06 13:02:03;;;;;;;7.97;4.18;;;23.50;99.90;;;;;;5070516;28;20034;-53
2022/06/06 13:04:53;;;;;;;3.78;2.65;;;23.40;99.90;;;;;;5069740;28;20039;-51
2022/06/06 13:07:39;;;;;;;4.65;3.60;;;23.40;99.90;;;;;;5088666;28;20379;-53
2022/06/06 13:10:23;;;;;;;4.18;3.35;;;23.30;99.90;;;;;;5089110;28;20055;-52
2022/06/06 13:13:16;;;;;;;3.13;2.05;;;23.10;99.90;;;;;;5090080;28;20079;-52
2022/06/06 13:16:11;;;;;;;5.50;2.38;;;23.00;99.90;;;;;;5090091;28;20216;-52
2022/06/06 13:19:05;;;;;;;5.05;2.53;;;23.10;99.90;;;;;;5060848;28;20040;-52
2022/06/06 13:21:36;;;;;;;5.57;2.95;;;22.80;99.90;;;;;;5090229;28;20139;-52
2022/06/06 13:24:17;;;;;;;7.97;2.35;;;22.70;99.90;;;;;;5089955;28;20020;-50
2022/06/06 13:26:52;;;;;;;3.70;2.10;;;22.70;99.90;;;;;;5089653;28;20027;-51
2022/06/06 13:29:28;;;;;;;4.60;2.60;;;22.70;99.90;;;;;;5089666;28;20487;-51
2022/06/06 13:32:05;;;;;;;9.63;6.30;;;22.70;99.90;;;;;;5089520;28;20042;-53
2022/06/06 13:34:47;;;;;;;2.95;2.22;;;22.70;99.90;;;;;;5058256;28;20039;-52
2022/06/06 13:37:36;;;;;;;8.23;2.33;;;22.80;99.90;;;;;;5064452;28;20055;-50
2022/06/06 13:40:12;;;;;;;;;;;22.40;99.90;;;;;;5067037;28;20503;-52
2022/06/06 13:43:13;;;;;;;6.43;2.40;;;22.40;99.90;;;;;;5062737;28;20007;-52
2022/06/06 13:46:05;;;;;;;5.25;2.28;;;22.50;99.90;;;;;;5034796;28;20081;-51
2022/06/06 13:48:42;;;;;;;4.78;1.98;;;22.40;99.90;;;;;;5023792;28;20032;-50
2022/06/06 13:51:20;;;;;;;3.85;1.58;;;22.30;99.90;;;;;;5057363;28;20025;-52
2022/06/06 13:53:48;;;;;;;3.40;1.90;;;22.20;99.90;;;;;;5037512;28;20100;-52
2022/06/06 13:56:36;;;;;;;2.10;1.40;;;22.10;99.90;;;;;;5039022;28;20052;-51
2022/06/06 13:59:21;;;;;;;3.63;1.50;;;22.20;99.90;;;;;;5028358;28;20021;-52
2022/06/06 14:02:12;;;;;;;2.67;1.38;;;22.00;99.90;;;;;;5029283;28;20045;-52